sensor_id;sensor_type;location;lat;lon;timestamp;temperature;humidity
54202;DHT22;40108;53.152;5.844;2023-11-21T00:00:55;9.90;97.30
54202;DHT22;40108;53.152;5.844;2023-11-21T00:03:20;9.80;97.30
54202;DHT22;40108;53.152;5.844;2023-11-21T00:05:49;9.90;97.40
54202;DHT22;40108;53.152;5.844;2023-11-21T00:08:14;9.90;97.40
54202;DHT22;40108;53.152;5.844;2023-11-21T00:10:40;9.90;97.40
54202;DHT22;40108;53.152;5.844;2023-11-21T00:13:06;9.90;97.40
54202;DHT22;40108;53.152;5.844;2023-11-21T00:15:31;9.90;97.40
54202;DHT22;40108;53.152;5.844;2023-11-21T00:17:57;9.90;97.40
54202;DHT22;40108;53.152;5.844;2023-11-21T00:20:23;9.90;97.50
54202;DHT22;40108;53.152;5.844;2023-11-21T00:22:49;9.90;97.50
54202;DHT22;40108;53.152;5.844;2023-11-21T00:25:15;9.90;97.40
54202;DHT22;40108;53.152;5.844;2023-11-21T00:27:42;10.00;97.40
54202;DHT22;40108;53.152;5.844;2023-11-21T00:30:08;9.90;97.50
54202;DHT22;40108;53.152;5.844;2023-11-21T00:32:38;9.90;97.50
54202;DHT22;40108;53.152;5.844;2023-11-21T00:35:05;9.90;97.50
54202;DHT22;40108;53.152;5.844;2023-11-21T00:37:31;9.90;97.50
54202;DHT22;40108;53.152;5.844;2023-11-21T00:39:58;9.90;97.50
54202;DHT22;40108;53.152;5.844;2023-11-21T00:42:23;9.90;97.50
54202;DHT22;40108;53.152;5.844;2023-11-21T00:44:49;9.90;97.50
54202;DHT22;40108;53.152;5.844;2023-11-21T00:47:15;9.90;97.50
54202;DHT22;40108;53.152;5.844;2023-11-21T00:49:41;9.90;97.50
54202;DHT22;40108;53.152;5.844;2023-11-21T00:52:07;9.90;97.50
54202;DHT22;40108;53.152;5.844;2023-11-21T00:54:33;9.90;97.50
54202;DHT22;40108;53.152;5.844;2023-11-21T00:56:59;9.90;97.60
54202;DHT22;40108;53.152;5.844;2023-11-21T00:59:25;9.90;97.60
54202;DHT22;40108;53.152;5.844;2023-11-21T01:01:50;10.00;97.60
54202;DHT22;40108;53.152;5.844;2023-11-21T01:04:16;9.90;97.70
54202;DHT22;40108;53.152;5.844;2023-11-21T01:06:42;10.00;97.70
54202;DHT22;40108;53.152;5.844;2023-11-21T01:09:07;10.00;97.70
54202;DHT22;40108;53.152;5.844;2023-11-21T01:11:36;10.00;97.70
54202;DHT22;40108;53.152;5.844;2023-11-21T01:14:03;10.00;97.70
54202;DHT22;40108;53.152;5.844;2023-11-21T01:16:30;10.00;97.70
54202;DHT22;40108;53.152;5.844;2023-11-21T01:18:58;10.00;97.70
54202;DHT22;40108;53.152;5.844;2023-11-21T01:21:25;10.00;97.80
54202;DHT22;40108;53.152;5.844;2023-11-21T01:23:50;10.00;97.80
54202;DHT22;40108;53.152;5.844;2023-11-21T01:26:16;10.00;97.80
54202;DHT22;40108;53.152;5.844;2023-11-21T01:28:42;10.00;97.80
54202;DHT22;40108;53.152;5.844;2023-11-21T01:31:07;10.00;97.80
54202;DHT22;40108;53.152;5.844;2023-11-21T01:33:33;10.00;97.80
54202;DHT22;40108;53.152;5.844;2023-11-21T01:35:59;10.00;97.80
54202;DHT22;40108;53.152;5.844;2023-11-21T01:38:25;10.00;97.80
54202;DHT22;40108;53.152;5.844;2023-11-21T01:40:51;9.90;97.80
54202;DHT22;40108;53.152;5.844;2023-11-21T01:43:17;9.90;97.80
54202;DHT22;40108;53.152;5.844;2023-11-21T01:45:43;10.00;97.80
54202;DHT22;40108;53.152;5.844;2023-11-21T01:48:10;10.00;97.90
54202;DHT22;40108;53.152;5.844;2023-11-21T01:50:36;10.00;97.90
54202;DHT22;40108;53.152;5.844;2023-11-21T01:53:02;10.00;97.90
54202;DHT22;40108;53.152;5.844;2023-11-21T01:55:29;10.00;97.90
54202;DHT22;40108;53.152;5.844;2023-11-21T01:57:56;10.00;97.90
54202;DHT22;40108;53.152;5.844;2023-11-21T02:00:22;10.00;97.90
54202;DHT22;40108;53.152;5.844;2023-11-21T02:02:49;10.10;97.90
54202;DHT22;40108;53.152;5.844;2023-11-21T02:05:15;10.10;98.00
54202;DHT22;40108;53.152;5.844;2023-11-21T02:07:43;10.10;98.00
54202;DHT22;40108;53.152;5.844;2023-11-21T02:10:09;10.10;98.00
54202;DHT22;40108;53.152;5.844;2023-11-21T02:12:35;10.20;98.00
54202;DHT22;40108;53.152;5.844;2023-11-21T02:15:04;10.20;98.00
54202;DHT22;40108;53.152;5.844;2023-11-21T02:17:35;10.20;98.10
54202;DHT22;40108;53.152;5.844;2023-11-21T02:20:01;10.20;98.10
54202;DHT22;40108;53.152;5.844;2023-11-21T02:22:30;10.30;98.20
54202;DHT22;40108;53.152;5.844;2023-11-21T02:24:56;10.40;98.20
54202;DHT22;40108;53.152;5.844;2023-11-21T02:27:24;10.40;98.20
54202;DHT22;40108;53.152;5.844;2023-11-21T02:29:50;10.40;98.20
54202;DHT22;40108;53.152;5.844;2023-11-21T02:32:16;10.40;98.20
54202;DHT22;40108;53.152;5.844;2023-11-21T02:34:44;10.40;98.20
54202;DHT22;40108;53.152;5.844;2023-11-21T02:37:10;10.40;98.20
54202;DHT22;40108;53.152;5.844;2023-11-21T02:39:36;10.40;98.20
54202;DHT22;40108;53.152;5.844;2023-11-21T02:42:02;10.40;98.20
54202;DHT22;40108;53.152;5.844;2023-11-21T02:44:27;10.50;98.20
54202;DHT22;40108;53.152;5.844;2023-11-21T02:46:53;10.50;98.20
54202;DHT22;40108;53.152;5.844;2023-11-21T02:49:19;10.50;98.20
54202;DHT22;40108;53.152;5.844;2023-11-21T02:51:44;10.50;98.30
54202;DHT22;40108;53.152;5.844;2023-11-21T02:54:11;10.50;98.20
54202;DHT22;40108;53.152;5.844;2023-11-21T02:56:37;10.50;98.30
54202;DHT22;40108;53.152;5.844;2023-11-21T02:59:03;10.50;98.30
54202;DHT22;40108;53.152;5.844;2023-11-21T03:01:28;10.50;98.30
54202;DHT22;40108;53.152;5.844;2023-11-21T03:03:54;10.50;98.30
54202;DHT22;40108;53.152;5.844;2023-11-21T03:06:21;10.50;98.40
54202;DHT22;40108;53.152;5.844;2023-11-21T03:08:47;10.50;98.40
54202;DHT22;40108;53.152;5.844;2023-11-21T03:11:13;10.50;98.40
54202;DHT22;40108;53.152;5.844;2023-11-21T03:13:42;10.60;98.40
54202;DHT22;40108;53.152;5.844;2023-11-21T03:16:11;10.50;98.40
54202;DHT22;40108;53.152;5.844;2023-11-21T03:18:38;10.60;98.30
54202;DHT22;40108;53.152;5.844;2023-11-21T03:21:07;10.50;98.30
54202;DHT22;40108;53.152;5.844;2023-11-21T03:23:36;10.50;98.30
54202;DHT22;40108;53.152;5.844;2023-11-21T03:26:02;10.50;98.30
54202;DHT22;40108;53.152;5.844;2023-11-21T03:28:28;10.50;98.30
54202;DHT22;40108;53.152;5.844;2023-11-21T03:30:55;10.50;98.30
54202;DHT22;40108;53.152;5.844;2023-11-21T03:33:21;10.40;98.30
54202;DHT22;40108;53.152;5.844;2023-11-21T03:35:48;10.50;98.30
54202;DHT22;40108;53.152;5.844;2023-11-21T03:38:14;10.40;98.30
54202;DHT22;40108;53.152;5.844;2023-11-21T03:40:40;10.40;98.30
54202;DHT22;40108;53.152;5.844;2023-11-21T03:43:05;10.40;98.20
54202;DHT22;40108;53.152;5.844;2023-11-21T03:45:32;10.40;98.20
54202;DHT22;40108;53.152;5.844;2023-11-21T03:47:57;10.30;98.20
54202;DHT22;40108;53.152;5.844;2023-11-21T03:50:23;10.30;98.20
54202;DHT22;40108;53.152;5.844;2023-11-21T03:52:49;10.30;98.20
54202;DHT22;40108;53.152;5.844;2023-11-21T03:55:14;10.30;98.20
54202;DHT22;40108;53.152;5.844;2023-11-21T03:57:40;10.30;98.20
54202;DHT22;40108;53.152;5.844;2023-11-21T04:00:07;10.20;98.20
54202;DHT22;40108;53.152;5.844;2023-11-21T04:02:36;10.20;98.20
54202;DHT22;40108;53.152;5.844;2023-11-21T04:05:01;10.20;98.20
54202;DHT22;40108;53.152;5.844;2023-11-21T04:07:27;10.20;98.20
54202;DHT22;40108;53.152;5.844;2023-11-21T04:09:52;10.20;98.20
54202;DHT22;40108;53.152;5.844;2023-11-21T04:12:19;10.20;98.20
54202;DHT22;40108;53.152;5.844;2023-11-21T04:14:45;10.20;98.20
54202;DHT22;40108;53.152;5.844;2023-11-21T04:17:10;10.20;98.20
54202;DHT22;40108;53.152;5.844;2023-11-21T04:19:36;10.20;98.20
54202;DHT22;40108;53.152;5.844;2023-11-21T04:22:02;10.20;98.20
54202;DHT22;40108;53.152;5.844;2023-11-21T04:24:28;10.20;98.20
54202;DHT22;40108;53.152;5.844;2023-11-21T04:26:53;10.20;98.20
54202;DHT22;40108;53.152;5.844;2023-11-21T04:29:19;10.20;98.20
54202;DHT22;40108;53.152;5.844;2023-11-21T04:31:45;10.20;98.20
54202;DHT22;40108;53.152;5.844;2023-11-21T04:34:11;10.10;98.20
54202;DHT22;40108;53.152;5.844;2023-11-21T04:36:38;10.10;98.20
54202;DHT22;40108;53.152;5.844;2023-11-21T04:39:04;10.10;98.20
54202;DHT22;40108;53.152;5.844;2023-11-21T04:41:31;10.10;98.20
54202;DHT22;40108;53.152;5.844;2023-11-21T04:43:57;10.10;98.20
54202;DHT22;40108;53.152;5.844;2023-11-21T04:46:24;10.10;98.20
54202;DHT22;40108;53.152;5.844;2023-11-21T04:48:50;10.10;98.20
54202;DHT22;40108;53.152;5.844;2023-11-21T04:51:15;10.10;98.20
54202;DHT22;40108;53.152;5.844;2023-11-21T04:53:41;10.10;98.20
54202;DHT22;40108;53.152;5.844;2023-11-21T04:56:07;10.10;98.20
54202;DHT22;40108;53.152;5.844;2023-11-21T04:58:32;10.10;98.20
54202;DHT22;40108;53.152;5.844;2023-11-21T05:00:58;10.10;98.20
54202;DHT22;40108;53.152;5.844;2023-11-21T05:03:24;10.10;98.20
54202;DHT22;40108;53.152;5.844;2023-11-21T05:05:50;10.10;98.20
54202;DHT22;40108;53.152;5.844;2023-11-21T05:08:15;10.10;98.20
54202;DHT22;40108;53.152;5.844;2023-11-21T05:10:41;10.00;98.20
54202;DHT22;40108;53.152;5.844;2023-11-21T05:13:07;10.00;98.20
54202;DHT22;40108;53.152;5.844;2023-11-21T05:15:35;10.00;98.20
54202;DHT22;40108;53.152;5.844;2023-11-21T05:18:01;10.00;98.20
54202;DHT22;40108;53.152;5.844;2023-11-21T05:20:27;10.00;98.20
54202;DHT22;40108;53.152;5.844;2023-11-21T05:22:53;10.00;98.20
54202;DHT22;40108;53.152;5.844;2023-11-21T05:25:19;10.00;98.20
54202;DHT22;40108;53.152;5.844;2023-11-21T05:27:47;10.00;98.20
54202;DHT22;40108;53.152;5.844;2023-11-21T05:30:13;9.90;98.20
54202;DHT22;40108;53.152;5.844;2023-11-21T05:32:40;9.90;98.20
54202;DHT22;40108;53.152;5.844;2023-11-21T05:35:09;9.90;98.30
54202;DHT22;40108;53.152;5.844;2023-11-21T05:37:39;9.90;98.20
54202;DHT22;40108;53.152;5.844;2023-11-21T05:40:06;9.80;98.20
54202;DHT22;40108;53.152;5.844;2023-11-21T05:42:33;9.80;98.20
54202;DHT22;40108;53.152;5.844;2023-11-21T05:44:59;9.80;98.20
54202;DHT22;40108;53.152;5.844;2023-11-21T05:47:36;9.70;98.10
54202;DHT22;40108;53.152;5.844;2023-11-21T05:50:01;9.70;98.10
54202;DHT22;40108;53.152;5.844;2023-11-21T05:52:27;9.70;98.20
54202;DHT22;40108;53.152;5.844;2023-11-21T05:54:53;9.60;98.20
54202;DHT22;40108;53.152;5.844;2023-11-21T05:57:18;9.60;98.20
54202;DHT22;40108;53.152;5.844;2023-11-21T05:59:44;9.60;98.20
54202;DHT22;40108;53.152;5.844;2023-11-21T06:02:11;9.60;98.20
54202;DHT22;40108;53.152;5.844;2023-11-21T06:04:37;9.50;98.20
54202;DHT22;40108;53.152;5.844;2023-11-21T06:07:02;9.50;98.30
54202;DHT22;40108;53.152;5.844;2023-11-21T06:09:28;9.50;98.20
54202;DHT22;40108;53.152;5.844;2023-11-21T06:11:54;9.50;98.30
54202;DHT22;40108;53.152;5.844;2023-11-21T06:14:19;9.50;98.30
54202;DHT22;40108;53.152;5.844;2023-11-21T06:16:47;9.50;98.30
54202;DHT22;40108;53.152;5.844;2023-11-21T06:19:13;9.50;98.30
54202;DHT22;40108;53.152;5.844;2023-11-21T06:21:38;9.50;98.30
54202;DHT22;40108;53.152;5.844;2023-11-21T06:24:04;9.50;98.30
54202;DHT22;40108;53.152;5.844;2023-11-21T06:26:30;9.50;98.30
54202;DHT22;40108;53.152;5.844;2023-11-21T06:28:57;9.50;98.30
54202;DHT22;40108;53.152;5.844;2023-11-21T06:31:23;9.50;98.30
54202;DHT22;40108;53.152;5.844;2023-11-21T06:33:48;9.40;98.30
54202;DHT22;40108;53.152;5.844;2023-11-21T06:36:15;9.50;98.30
54202;DHT22;40108;53.152;5.844;2023-11-21T06:38:41;9.40;98.30
54202;DHT22;40108;53.152;5.844;2023-11-21T06:41:07;9.40;98.30
54202;DHT22;40108;53.152;5.844;2023-11-21T06:43:33;9.40;98.30
54202;DHT22;40108;53.152;5.844;2023-11-21T06:45:59;9.40;98.30
54202;DHT22;40108;53.152;5.844;2023-11-21T06:48:25;9.40;98.30
54202;DHT22;40108;53.152;5.844;2023-11-21T06:50:51;9.40;98.30
54202;DHT22;40108;53.152;5.844;2023-11-21T06:53:17;9.40;98.30
54202;DHT22;40108;53.152;5.844;2023-11-21T06:55:43;9.40;98.30
54202;DHT22;40108;53.152;5.844;2023-11-21T06:58:09;9.40;98.30
54202;DHT22;40108;53.152;5.844;2023-11-21T07:00:34;9.40;98.30
54202;DHT22;40108;53.152;5.844;2023-11-21T07:03:00;9.40;98.30
54202;DHT22;40108;53.152;5.844;2023-11-21T07:05:26;9.30;98.30
54202;DHT22;40108;53.152;5.844;2023-11-21T07:07:51;9.30;98.30
54202;DHT22;40108;53.152;5.844;2023-11-21T07:10:19;9.40;98.30
54202;DHT22;40108;53.152;5.844;2023-11-21T07:12:45;9.30;98.30
54202;DHT22;40108;53.152;5.844;2023-11-21T07:15:11;9.30;98.30
54202;DHT22;40108;53.152;5.844;2023-11-21T07:17:37;9.30;98.30
54202;DHT22;40108;53.152;5.844;2023-11-21T07:20:04;9.30;98.30
54202;DHT22;40108;53.152;5.844;2023-11-21T07:22:29;9.30;98.20
54202;DHT22;40108;53.152;5.844;2023-11-21T07:24:55;9.20;98.20
54202;DHT22;40108;53.152;5.844;2023-11-21T07:27:22;9.20;98.20
54202;DHT22;40108;53.152;5.844;2023-11-21T07:29:48;9.20;98.20
54202;DHT22;40108;53.152;5.844;2023-11-21T07:32:14;9.20;98.20
54202;DHT22;40108;53.152;5.844;2023-11-21T07:34:40;9.20;98.20
54202;DHT22;40108;53.152;5.844;2023-11-21T07:37:09;9.10;98.20
54202;DHT22;40108;53.152;5.844;2023-11-21T07:39:35;9.10;98.10
54202;DHT22;40108;53.152;5.844;2023-11-21T07:42:02;9.10;98.10
54202;DHT22;40108;53.152;5.844;2023-11-21T07:44:29;9.00;98.10
54202;DHT22;40108;53.152;5.844;2023-11-21T07:46:55;9.00;98.00
54202;DHT22;40108;53.152;5.844;2023-11-21T07:49:23;9.00;97.90
54202;DHT22;40108;53.152;5.844;2023-11-21T07:51:49;8.90;97.90
54202;DHT22;40108;53.152;5.844;2023-11-21T07:54:16;8.90;97.90
54202;DHT22;40108;53.152;5.844;2023-11-21T07:56:42;8.90;97.80
54202;DHT22;40108;53.152;5.844;2023-11-21T07:59:08;8.90;97.80
54202;DHT22;40108;53.152;5.844;2023-11-21T08:01:33;8.80;97.80
54202;DHT22;40108;53.152;5.844;2023-11-21T08:03:59;8.80;97.70
54202;DHT22;40108;53.152;5.844;2023-11-21T08:06:29;8.80;97.60
54202;DHT22;40108;53.152;5.844;2023-11-21T08:08:56;8.80;97.60
54202;DHT22;40108;53.152;5.844;2023-11-21T08:11:22;8.80;97.60
54202;DHT22;40108;53.152;5.844;2023-11-21T08:13:48;8.80;97.60
54202;DHT22;40108;53.152;5.844;2023-11-21T08:16:14;8.80;97.60
54202;DHT22;40108;53.152;5.844;2023-11-21T08:18:39;8.80;97.50
54202;DHT22;40108;53.152;5.844;2023-11-21T08:21:06;8.80;97.40
54202;DHT22;40108;53.152;5.844;2023-11-21T08:23:33;8.70;97.30
54202;DHT22;40108;53.152;5.844;2023-11-21T08:25:59;8.70;97.30
54202;DHT22;40108;53.152;5.844;2023-11-21T08:28:25;8.80;97.40
54202;DHT22;40108;53.152;5.844;2023-11-21T08:30:53;8.80;97.30
54202;DHT22;40108;53.152;5.844;2023-11-21T08:33:22;8.80;97.20
54202;DHT22;40108;53.152;5.844;2023-11-21T08:35:48;8.80;97.30
54202;DHT22;40108;53.152;5.844;2023-11-21T08:38:14;8.80;97.30
54202;DHT22;40108;53.152;5.844;2023-11-21T08:40:39;8.80;97.30
54202;DHT22;40108;53.152;5.844;2023-11-21T08:43:05;8.80;97.20
54202;DHT22;40108;53.152;5.844;2023-11-21T08:45:31;8.90;97.10
54202;DHT22;40108;53.152;5.844;2023-11-21T08:48:02;8.90;97.20
54202;DHT22;40108;53.152;5.844;2023-11-21T08:50:29;8.80;96.90
54202;DHT22;40108;53.152;5.844;2023-11-21T08:52:54;8.90;97.00
54202;DHT22;40108;53.152;5.844;2023-11-21T08:55:21;8.90;96.70
54202;DHT22;40108;53.152;5.844;2023-11-21T08:57:47;8.90;96.80
54202;DHT22;40108;53.152;5.844;2023-11-21T09:00:13;8.90;96.80
54202;DHT22;40108;53.152;5.844;2023-11-21T09:02:41;8.90;96.80
54202;DHT22;40108;53.152;5.844;2023-11-21T09:05:11;8.90;96.90
54202;DHT22;40108;53.152;5.844;2023-11-21T09:07:37;8.90;96.70
54202;DHT22;40108;53.152;5.844;2023-11-21T09:10:04;8.90;96.60
54202;DHT22;40108;53.152;5.844;2023-11-21T09:12:31;8.90;96.60
54202;DHT22;40108;53.152;5.844;2023-11-21T09:14:58;8.90;96.50
54202;DHT22;40108;53.152;5.844;2023-11-21T09:17:23;8.90;96.60
54202;DHT22;40108;53.152;5.844;2023-11-21T09:19:49;8.90;96.50
54202;DHT22;40108;53.152;5.844;2023-11-21T09:22:17;8.90;96.40
54202;DHT22;40108;53.152;5.844;2023-11-21T09:24:43;8.90;96.40
54202;DHT22;40108;53.152;5.844;2023-11-21T09:27:08;8.90;96.40
54202;DHT22;40108;53.152;5.844;2023-11-21T09:29:35;8.90;96.30
54202;DHT22;40108;53.152;5.844;2023-11-21T09:32:05;8.90;96.20
54202;DHT22;40108;53.152;5.844;2023-11-21T09:34:33;8.90;96.40
54202;DHT22;40108;53.152;5.844;2023-11-21T09:36:59;8.90;96.30
54202;DHT22;40108;53.152;5.844;2023-11-21T09:39:24;8.90;96.40
54202;DHT22;40108;53.152;5.844;2023-11-21T09:42:04;8.90;96.40
54202;DHT22;40108;53.152;5.844;2023-11-21T09:44:44;9.00;96.20
54202;DHT22;40108;53.152;5.844;2023-11-21T09:47:15;8.90;96.10
54202;DHT22;40108;53.152;5.844;2023-11-21T09:49:47;8.90;96.10
54202;DHT22;40108;53.152;5.844;2023-11-21T09:52:22;9.00;96.20
54202;DHT22;40108;53.152;5.844;2023-11-21T09:54:50;9.00;95.90
54202;DHT22;40108;53.152;5.844;2023-11-21T09:57:16;9.00;94.80
54202;DHT22;40108;53.152;5.844;2023-11-21T09:59:44;9.00;95.60
54202;DHT22;40108;53.152;5.844;2023-11-21T10:02:11;9.10;95.40
54202;DHT22;40108;53.152;5.844;2023-11-21T10:04:39;9.20;95.80
54202;DHT22;40108;53.152;5.844;2023-11-21T10:07:06;9.20;95.30
54202;DHT22;40108;53.152;5.844;2023-11-21T10:09:36;9.20;95.50
54202;DHT22;40108;53.152;5.844;2023-11-21T10:12:04;9.20;95.30
54202;DHT22;40108;53.152;5.844;2023-11-21T10:14:32;9.20;94.60
54202;DHT22;40108;53.152;5.844;2023-11-21T10:16:58;9.20;94.60
54202;DHT22;40108;53.152;5.844;2023-11-21T10:19:25;9.20;94.40
54202;DHT22;40108;53.152;5.844;2023-11-21T10:21:52;9.20;94.60
54202;DHT22;40108;53.152;5.844;2023-11-21T10:24:20;9.20;94.60
54202;DHT22;40108;53.152;5.844;2023-11-21T10:26:45;9.20;94.50
54202;DHT22;40108;53.152;5.844;2023-11-21T10:29:14;9.20;94.40
54202;DHT22;40108;53.152;5.844;2023-11-21T10:31:42;9.20;94.60
54202;DHT22;40108;53.152;5.844;2023-11-21T10:34:16;9.20;94.70
54202;DHT22;40108;53.152;5.844;2023-11-21T10:36:42;9.20;94.80
54202;DHT22;40108;53.152;5.844;2023-11-21T10:39:08;9.20;94.90
54202;DHT22;40108;53.152;5.844;2023-11-21T10:41:37;9.20;94.80
54202;DHT22;40108;53.152;5.844;2023-11-21T10:44:03;9.20;94.90
54202;DHT22;40108;53.152;5.844;2023-11-21T10:46:32;9.20;94.60
54202;DHT22;40108;53.152;5.844;2023-11-21T10:48:59;9.20;94.70
54202;DHT22;40108;53.152;5.844;2023-11-21T10:51:25;9.20;94.30
54202;DHT22;40108;53.152;5.844;2023-11-21T10:53:51;9.10;94.40
54202;DHT22;40108;53.152;5.844;2023-11-21T10:56:18;9.10;94.20
54202;DHT22;40108;53.152;5.844;2023-11-21T10:58:48;9.10;94.50
54202;DHT22;40108;53.152;5.844;2023-11-21T11:01:18;9.10;94.10
54202;DHT22;40108;53.152;5.844;2023-11-21T11:03:44;9.10;94.20
54202;DHT22;40108;53.152;5.844;2023-11-21T11:06:10;9.10;94.30
54202;DHT22;40108;53.152;5.844;2023-11-21T11:08:38;9.10;93.90
54202;DHT22;40108;53.152;5.844;2023-11-21T11:11:09;9.10;93.30
54202;DHT22;40108;53.152;5.844;2023-11-21T11:13:35;9.00;93.90
54202;DHT22;40108;53.152;5.844;2023-11-21T11:16:03;9.10;94.10
54202;DHT22;40108;53.152;5.844;2023-11-21T11:18:33;9.20;94.20
54202;DHT22;40108;53.152;5.844;2023-11-21T11:21:37;9.40;94.50
54202;DHT22;40108;53.152;5.844;2023-11-21T11:24:33;9.50;94.30
54202;DHT22;40108;53.152;5.844;2023-11-21T11:32:54;9.40;92.50
54202;DHT22;40108;53.152;5.844;2023-11-21T11:35:38;9.30;91.00
54202;DHT22;40108;53.152;5.844;2023-11-21T11:38:07;9.20;89.90
54202;DHT22;40108;53.152;5.844;2023-11-21T11:40:41;9.30;91.10
54202;DHT22;40108;53.152;5.844;2023-11-21T11:43:07;9.40;90.10
54202;DHT22;40108;53.152;5.844;2023-11-21T11:45:34;9.50;89.70
54202;DHT22;40108;53.152;5.844;2023-11-21T11:48:01;9.60;89.80
54202;DHT22;40108;53.152;5.844;2023-11-21T11:50:29;9.60;87.20
54202;DHT22;40108;53.152;5.844;2023-11-21T11:53:14;9.60;86.80
54202;DHT22;40108;53.152;5.844;2023-11-21T11:55:41;9.60;86.70
54202;DHT22;40108;53.152;5.844;2023-11-21T11:58:07;9.70;87.70
54202;DHT22;40108;53.152;5.844;2023-11-21T12:00:34;9.70;86.90
54202;DHT22;40108;53.152;5.844;2023-11-21T12:03:05;9.80;85.80
54202;DHT22;40108;53.152;5.844;2023-11-21T12:05:33;9.80;86.70
54202;DHT22;40108;53.152;5.844;2023-11-21T12:08:07;9.70;83.70
54202;DHT22;40108;53.152;5.844;2023-11-21T12:10:35;9.60;84.60
54202;DHT22;40108;53.152;5.844;2023-11-21T12:13:07;9.50;84.10
54202;DHT22;40108;53.152;5.844;2023-11-21T12:15:33;9.60;84.60
54202;DHT22;40108;53.152;5.844;2023-11-21T12:17:59;9.70;85.60
54202;DHT22;40108;53.152;5.844;2023-11-21T12:20:26;9.70;84.40
54202;DHT22;40108;53.152;5.844;2023-11-21T12:22:53;9.70;82.80
54202;DHT22;40108;53.152;5.844;2023-11-21T12:27:48;9.70;83.80
54202;DHT22;40108;53.152;5.844;2023-11-21T12:30:16;9.70;83.20
54202;DHT22;40108;53.152;5.844;2023-11-21T12:32:49;9.60;83.30
54202;DHT22;40108;53.152;5.844;2023-11-21T12:35:15;9.60;83.10
54202;DHT22;40108;53.152;5.844;2023-11-21T12:37:45;9.60;84.00
54202;DHT22;40108;53.152;5.844;2023-11-21T12:40:12;9.70;83.30
54202;DHT22;40108;53.152;5.844;2023-11-21T12:42:45;9.70;82.60
54202;DHT22;40108;53.152;5.844;2023-11-21T12:45:23;9.60;81.60
54202;DHT22;40108;53.152;5.844;2023-11-21T12:47:58;9.60;82.10
54202;DHT22;40108;53.152;5.844;2023-11-21T12:50:30;9.50;82.90
54202;DHT22;40108;53.152;5.844;2023-11-21T12:53:04;9.40;83.60
54202;DHT22;40108;53.152;5.844;2023-11-21T12:55:34;9.40;84.50
54202;DHT22;40108;53.152;5.844;2023-11-21T12:58:05;9.40;85.00
54202;DHT22;40108;53.152;5.844;2023-11-21T13:00:37;9.60;86.10
54202;DHT22;40108;53.152;5.844;2023-11-21T13:03:05;9.70;86.10
54202;DHT22;40108;53.152;5.844;2023-11-21T13:05:36;9.80;85.70
54202;DHT22;40108;53.152;5.844;2023-11-21T13:08:09;9.70;85.40
54202;DHT22;40108;53.152;5.844;2023-11-21T13:10:39;9.70;84.10
54202;DHT22;40108;53.152;5.844;2023-11-21T13:13:07;9.70;82.40
54202;DHT22;40108;53.152;5.844;2023-11-21T13:15:38;9.70;82.90
54202;DHT22;40108;53.152;5.844;2023-11-21T13:18:06;9.70;83.40
54202;DHT22;40108;53.152;5.844;2023-11-21T13:20:32;9.70;83.30
54202;DHT22;40108;53.152;5.844;2023-11-21T13:22:58;9.60;82.90
54202;DHT22;40108;53.152;5.844;2023-11-21T13:25:26;9.60;83.20
54202;DHT22;40108;53.152;5.844;2023-11-21T13:27:56;9.50;83.20
54202;DHT22;40108;53.152;5.844;2023-11-21T13:30:23;9.50;83.40
54202;DHT22;40108;53.152;5.844;2023-11-21T13:32:53;9.50;84.10
54202;DHT22;40108;53.152;5.844;2023-11-21T13:35:19;9.60;84.10
54202;DHT22;40108;53.152;5.844;2023-11-21T13:37:56;9.60;82.80
54202;DHT22;40108;53.152;5.844;2023-11-21T13:40:25;9.60;84.00
54202;DHT22;40108;53.152;5.844;2023-11-21T13:42:54;9.60;84.00
54202;DHT22;40108;53.152;5.844;2023-11-21T13:45:21;9.60;84.80
54202;DHT22;40108;53.152;5.844;2023-11-21T13:47:49;9.50;84.80
54202;DHT22;40108;53.152;5.844;2023-11-21T13:50:17;9.50;85.40
54202;DHT22;40108;53.152;5.844;2023-11-21T13:52:48;9.50;85.10
54202;DHT22;40108;53.152;5.844;2023-11-21T13:55:15;9.50;85.60
54202;DHT22;40108;53.152;5.844;2023-11-21T13:57:42;9.40;85.60
54202;DHT22;40108;53.152;5.844;2023-11-21T14:00:11;9.40;85.80
54202;DHT22;40108;53.152;5.844;2023-11-21T14:02:57;9.30;85.80
54202;DHT22;40108;53.152;5.844;2023-11-21T14:05:29;9.20;85.70
54202;DHT22;40108;53.152;5.844;2023-11-21T14:07:57;9.20;85.90
54202;DHT22;40108;53.152;5.844;2023-11-21T14:10:29;9.20;85.90
54202;DHT22;40108;53.152;5.844;2023-11-21T14:13:03;9.10;86.50
54202;DHT22;40108;53.152;5.844;2023-11-21T14:15:31;9.10;86.80
54202;DHT22;40108;53.152;5.844;2023-11-21T14:17:59;9.10;87.00
54202;DHT22;40108;53.152;5.844;2023-11-21T14:20:25;9.00;87.00
54202;DHT22;40108;53.152;5.844;2023-11-21T14:22:51;9.00;87.10
54202;DHT22;40108;53.152;5.844;2023-11-21T14:25:17;8.90;87.30
54202;DHT22;40108;53.152;5.844;2023-11-21T14:27:43;8.90;87.30
54202;DHT22;40108;53.152;5.844;2023-11-21T14:30:09;8.90;87.60
54202;DHT22;40108;53.152;5.844;2023-11-21T14:32:38;8.80;87.80
54202;DHT22;40108;53.152;5.844;2023-11-21T14:35:04;8.80;88.40
54202;DHT22;40108;53.152;5.844;2023-11-21T14:37:30;8.70;88.90
54202;DHT22;40108;53.152;5.844;2023-11-21T14:39:56;8.70;89.30
54202;DHT22;40108;53.152;5.844;2023-11-21T14:42:22;8.60;89.70
54202;DHT22;40108;53.152;5.844;2023-11-21T14:44:51;8.50;90.10
54202;DHT22;40108;53.152;5.844;2023-11-21T14:47:17;8.50;90.30
54202;DHT22;40108;53.152;5.844;2023-11-21T14:49:50;8.40;90.50
54202;DHT22;40108;53.152;5.844;2023-11-21T14:52:20;8.40;90.80
54202;DHT22;40108;53.152;5.844;2023-11-21T14:54:57;8.30;90.90
54202;DHT22;40108;53.152;5.844;2023-11-21T14:57:46;8.20;91.20
54202;DHT22;40108;53.152;5.844;2023-11-21T15:00:20;8.20;91.20
54202;DHT22;40108;53.152;5.844;2023-11-21T15:02:58;8.20;91.20
54202;DHT22;40108;53.152;5.844;2023-11-21T15:05:24;8.10;91.20
54202;DHT22;40108;53.152;5.844;2023-11-21T15:07:51;8.10;91.20
54202;DHT22;40108;53.152;5.844;2023-11-21T15:10:21;8.10;91.30
54202;DHT22;40108;53.152;5.844;2023-11-21T15:12:54;8.10;91.40
54202;DHT22;40108;53.152;5.844;2023-11-21T15:15:20;8.00;91.50
54202;DHT22;40108;53.152;5.844;2023-11-21T15:17:46;8.00;91.60
54202;DHT22;40108;53.152;5.844;2023-11-21T15:20:13;7.90;91.60
54202;DHT22;40108;53.152;5.844;2023-11-21T15:22:47;8.00;91.70
54202;DHT22;40108;53.152;5.844;2023-11-21T15:25:12;7.90;91.70
54202;DHT22;40108;53.152;5.844;2023-11-21T15:27:39;7.90;91.80
54202;DHT22;40108;53.152;5.844;2023-11-21T15:30:05;7.90;91.90
54202;DHT22;40108;53.152;5.844;2023-11-21T15:32:31;7.90;91.90
54202;DHT22;40108;53.152;5.844;2023-11-21T15:34:57;7.80;91.40
54202;DHT22;40108;53.152;5.844;2023-11-21T15:37:23;7.80;91.40
54202;DHT22;40108;53.152;5.844;2023-11-21T15:39:50;7.80;91.10
54202;DHT22;40108;53.152;5.844;2023-11-21T15:42:16;7.70;90.60
54202;DHT22;40108;53.152;5.844;2023-11-21T15:44:41;7.70;90.40
54202;DHT22;40108;53.152;5.844;2023-11-21T15:47:07;7.70;90.40
54202;DHT22;40108;53.152;5.844;2023-11-21T15:49:34;7.70;90.60
54202;DHT22;40108;53.152;5.844;2023-11-21T15:52:02;7.70;90.60